Time,TemperatureF,DewpointF,PressureIn,WindDirection,WindDirectionDegrees,WindSpeedMPH,WindSpeedGustMPH,Humidity,HourlyPrecipIn,Conditions,Clouds,dailyrainin,SolarRadiationWatts/m^2,SoftwareType,DateUTC
2013-05-10 00:00:00,70.0,66.0,-100.00,SE,131,2.0,-999.0,86,-99.99,,,-99.99,0.000000,,2013-05-10 05:00:00,
2013-05-10 00:52:00,70.0,66.0,-100.00,SE,131,2.0,-999.0,86,-99.99,,,-99.99,0.000000,,2013-05-10 05:52:00,
2013-05-10 03:00:00,70.0,68.0,-100.00,SSE,167,2.0,-999.0,94,-99.99,,,-99.99,0.000000,,2013-05-10 08:00:00,
2013-05-10 03:52:00,70.0,68.0,-100.00,SSE,167,2.0,-999.0,94,-99.99,,,-99.99,0.000000,,2013-05-10 08:52:00,
2013-05-10 04:00:00,70.0,68.0,-100.00,SSE,168,3.0,-999.0,94,-99.99,,,-99.99,0.000000,,2013-05-10 09:00:00,
2013-05-10 04:52:00,70.0,68.0,-100.00,SSE,168,3.0,-999.0,94,-99.99,,,-99.99,0.000000,,2013-05-10 09:52:00,
2013-05-10 05:00:00,71.0,69.0,-100.00,SSE,166,3.0,-999.0,93,-99.99,,,-99.99,0.000000,,2013-05-10 10:00:00,
2013-05-10 05:53:00,71.0,69.0,-100.00,SSE,166,3.0,-999.0,93,-99.99,,,-99.99,0.000000,,2013-05-10 10:53:00,
2013-05-10 06:00:00,71.0,68.0,-100.00,South,176,4.0,-999.0,91,-99.99,,,-99.99,0.000000,,2013-05-10 11:00:00,
2013-05-10 06:52:00,71.0,68.0,-100.00,South,176,4.0,-999.0,91,-99.99,,,-99.99,0.000000,,2013-05-10 11:52:00,
2013-05-10 07:00:00,71.0,68.0,-100.00,SSE,155,3.0,-999.0,90,-99.99,,,-99.99,1.540000,,2013-05-10 12:00:00,
2013-05-10 07:52:00,71.0,68.0,-100.00,SSE,155,3.0,-999.0,90,-99.99,,,-99.99,1.540000,,2013-05-10 12:52:00,
2013-05-10 08:00:00,70.0,68.0,-100.00,SE,136,3.0,-999.0,93,-99.99,,,-99.99,1.910000,,2013-05-10 13:00:00,
2013-05-10 08:52:00,70.0,68.0,-100.00,SE,136,3.0,-999.0,93,-99.99,,,-99.99,1.910000,,2013-05-10 13:52:00,
2013-05-10 09:00:00,70.0,69.0,-100.00,NNW,338,1.0,-999.0,97,-99.99,,,-99.99,1.820000,,2013-05-10 14:00:00,
2013-05-10 09:52:00,70.0,69.0,-100.00,NNW,338,1.0,-999.0,97,-99.99,,,-99.99,1.820000,,2013-05-10 14:52:00,
2013-05-10 10:00:00,68.0,68.0,-100.00,NE,40,1.0,-999.0,98,-99.99,,,-99.99,2.280000,,2013-05-10 15:00:00,
2013-05-10 10:53:00,68.0,68.0,-100.00,NE,40,1.0,-999.0,98,-99.99,,,-99.99,2.280000,,2013-05-10 15:53:00,
2013-05-10 11:00:00,65.0,64.0,-100.00,East,99,4.0,-999.0,96,-99.99,,,-99.99,6.710000,,2013-05-10 16:00:00,
2013-05-10 11:53:00,65.0,64.0,-100.00,East,99,4.0,-999.0,96,-99.99,,,-99.99,6.710000,,2013-05-10 16:53:00,
2013-05-10 12:00:00,-999.0,-99.9,-100.00,SSE,157,8.0,-999.0,88,-99.99,,,-99.99,,,2013-05-10 17:00:00,
2013-05-10 12:52:00,68.0,64.0,-100.00,SSE,157,8.0,-999.0,88,-99.99,,,-99.99,47.090000,,2013-05-10 17:52:00,
2013-05-10 13:00:00,70.0,62.0,-100.00,South,182,8.0,-999.0,75,-99.99,,,-99.99,133.000000,,2013-05-10 18:00:00,
2013-05-10 13:54:00,70.0,62.0,-100.00,South,182,8.0,-999.0,75,-99.99,,,-99.99,133.000000,,2013-05-10 18:54:00,
2013-05-10 14:00:00,73.0,63.0,-100.00,SSW,199,6.0,-999.0,70,-99.99,,,-99.99,205.679993,,2013-05-10 19:00:00,
2013-05-10 14:52:00,73.0,63.0,-100.00,SSW,199,6.0,-999.0,70,-99.99,,,-99.99,205.679993,,2013-05-10 19:52:00,
2013-05-10 15:00:00,72.0,64.0,-100.00,SSW,210,8.0,-999.0,76,-99.99,,,-99.99,265.899994,,2013-05-10 20:00:00,
2013-05-10 15:52:00,72.0,64.0,-100.00,SSW,210,8.0,-999.0,76,-99.99,,,-99.99,265.899994,,2013-05-10 20:52:00,
2013-05-10 16:00:00,71.0,66.0,-100.00,WSW,237,9.0,-999.0,84,-99.99,,,-99.99,156.179993,,2013-05-10 21:00:00,
2013-05-10 16:53:00,71.0,66.0,-100.00,WSW,237,9.0,-999.0,84,-99.99,,,-99.99,156.179993,,2013-05-10 21:53:00,
2013-05-10 17:00:00,70.0,66.0,-100.00,WSW,254,6.0,-999.0,88,-99.99,,,-99.99,90.540001,,2013-05-10 22:00:00,
2013-05-10 17:52:00,70.0,66.0,-100.00,WSW,254,6.0,-999.0,88,-99.99,,,-99.99,90.540001,,2013-05-10 22:52:00,
2013-05-10 18:00:00,68.0,66.0,-100.00,WNW,284,4.0,-999.0,92,-99.99,,,-99.99,29.639999,,2013-05-10 23:00:00,
2013-05-10 18:52:00,68.0,66.0,-100.00,WNW,284,4.0,-999.0,92,-99.99,,,-99.99,29.639999,,2013-05-10 23:52:00,
2013-05-10 19:00:00,67.0,65.0,-100.00,WSW,251,6.0,-999.0,94,-99.99,,,-99.99,11.200000,,2013-05-11 00:00:00,
2013-05-10 19:52:00,67.0,65.0,-100.00,WSW,251,6.0,-999.0,94,-99.99,,,-99.99,11.200000,,2013-05-11 00:52:00,
2013-05-10 20:00:00,66.0,65.0,-100.00,WSW,251,5.0,-999.0,95,-99.99,,,-99.99,1.520000,,2013-05-11 01:00:00,
2013-05-10 20:52:00,66.0,65.0,-100.00,WSW,251,5.0,-999.0,95,-99.99,,,-99.99,1.520000,,2013-05-11 01:52:00,
2013-05-10 21:00:00,66.0,65.0,-100.00,East,97,4.0,-999.0,97,-99.99,,,-99.99,0.000000,,2013-05-11 02:00:00,
2013-05-10 21:52:00,66.0,65.0,-100.00,East,97,4.0,-999.0,97,-99.99,,,-99.99,0.000000,,2013-05-11 02:52:00,
2013-05-10 22:00:00,64.0,64.0,-100.00,North,351,2.0,-999.0,98,-99.99,,,-99.99,0.000000,,2013-05-11 03:00:00,
2013-05-10 22:53:00,64.0,64.0,-100.00,North,351,2.0,-999.0,98,-99.99,,,-99.99,0.000000,,2013-05-11 03:53:00,
2013-05-10 23:00:00,63.0,63.0,-100.00,NNW,330,1.0,-999.0,98,-99.99,,,-99.99,0.000000,,2013-05-11 04:00:00,
2013-05-10 23:52:00,63.0,63.0,-100.00,NNW,330,1.0,-999.0,98,-99.99,,,-99.99,0.000000,,2013-05-11 04:52:00,